You are listening to:
RJTT ATIS - Tokyo, Japan

RJTT 020036Z 34023G33KT 9999 FEW030 BKN060 07/M08 Q1017 RMK 1CU030 5SC060 A3004

If stream doesn't start automatically press the play button
If stream stops then reload player then press play